Time;durP1;ratioP1;P1;durP2;ratioP2;P2;SDS_P1;SDS_P2;PMS_P1;PMS_P2;Temp;Humidity;BMP_temperature;BMP_pressure;BME280_temperature;BME280_humidity;BME280_pressure;Samples;Min_cycle;Max_cycle;Signal;HPM_P1;HPM_P2
2022/08/23 00:00:57;;;;;;;9.90;7.70;;;;;;;19.07;77.70;100201.45;89159;1262;81910;-61
2022/08/23 00:03:08;;;;;;;14.80;8.40;;;;;;;19.07;77.92;100214.48;89173;1262;98630;-61
2022/08/23 00:05:17;;;;;;;14.30;9.20;;;;;;;19.07;77.89;100219.30;89207;1263;89202;-61
2022/08/23 00:07:29;;;;;;;14.30;8.70;;;;;;;19.05;77.99;100222.65;89016;1265;93718;-59
2022/08/23 00:09:39;;;;;;;17.50;8.40;;;;;;;19.06;78.00;100232.44;89123;1262;79832;-61
2022/08/23 00:11:53;;;;;;;12.40;9.00;;;;;;;19.08;78.04;100233.01;89200;1262;82381;-60
2022/08/23 00:14:07;;;;;;;13.10;8.70;;;;;;;19.06;78.19;100231.50;89176;1263;98775;-60
2022/08/23 00:16:20;;;;;;;;;;;;;;;19.07;78.36;100228.61;89210;1263;88048;-60
2022/08/23 00:18:32;;;;;;;15.70;9.10;;;;;;;19.13;78.51;100230.95;89110;1263;93838;-60
2022/08/23 00:20:42;;;;;;;17.50;8.20;;;;;;;19.16;78.51;100231.16;89190;1263;81967;-61
2022/08/23 00:22:51;;;;;;;18.70;9.20;;;;;;;19.17;78.64;100225.65;89173;1263;82368;-60
2022/08/23 00:25:02;;;;;;;16.90;8.50;;;;;;;19.21;78.78;100228.52;88982;1265;98065;-60
2022/08/23 00:27:14;;;;;;;16.50;8.30;;;;;;;19.20;78.70;100225.10;89225;1263;88126;-59
2022/08/23 00:29:31;;;;;;;17.20;8.50;;;;;;;19.20;78.72;100220.33;89145;1263;94582;-59
2022/08/23 00:31:42;;;;;;;16.20;8.50;;;;;;;19.17;78.62;100216.78;89162;1263;80472;-60
2022/08/23 00:33:54;;;;;;;15.30;8.20;;;;;;;19.14;78.62;100211.67;89197;1263;82833;-60
2022/08/23 00:36:03;;;;;;;16.20;9.50;;;;;;;19.13;78.65;100209.70;89073;1255;98758;-60
2022/08/23 00:38:12;;;;;;;14.80;8.80;;;;;;;19.12;78.61;100210.48;89163;1263;88083;-60
2022/08/23 00:40:24;;;;;;;19.10;8.30;;;;;;;19.10;78.78;100211.52;89188;1263;94694;-60
2022/08/23 00:47:53;;;;;;;12.50;8.20;;;;;;;19.05;78.85;100219.43;89157;1263;97886;-61
2022/08/23 00:50:18;;;;;;;17.50;8.60;;;;;;;19.05;78.93;100221.89;89166;1263;87907;-61
2022/08/23 00:52:34;;;;;;;15.80;9.50;;;;;;;19.06;78.95;100225.52;89196;1263;95553;-61
2022/08/23 00:54:50;;;;;;;18.40;9.80;;;;;;;19.09;79.17;100223.93;89156;1263;79968;-60
2022/08/23 00:57:03;;;;;;;16.50;8.90;;;;;;;19.12;79.36;100225.57;89229;1263;81620;-60
2022/08/23 00:59:15;;;;;;;17.20;8.60;;;;;;;19.16;79.33;100227.89;89064;1256;98581;-60
2022/08/23 01:01:25;;;;;;;16.90;9.30;;;;;;;19.16;79.50;100232.09;89014;1263;88130;-60
2022/08/23 01:03:39;;;;;;;20.70;8.50;;;;;;;19.19;79.46;100233.95;89010;1263;95137;-60
2022/08/23 01:05:56;;;;;;;14.70;8.50;;;;;;;19.21;79.73;100244.56;89036;1264;80944;-60
2022/08/23 01:08:12;;;;;;;19.80;8.50;;;;;;;19.28;79.83;100245.48;88961;1263;82978;-60
2022/08/23 01:10:29;;;;;;;16.60;8.80;;;;;;;19.40;79.90;100251.01;89009;1263;97444;-60
2022/08/23 01:12:45;;;;;;;15.80;8.30;;;;;;;19.46;80.04;100251.54;89017;1264;87263;-61
2022/08/23 01:14:59;;;;;;;15.30;7.90;;;;;;;19.46;79.83;100254.56;89019;1263;93033;-61
2022/08/23 01:17:14;;;;;;;14.50;8.70;;;;;;;19.48;79.96;100254.21;89034;1263;79799;-61
2022/08/23 01:19:29;;;;;;;14.30;7.40;;;;;;;19.52;79.93;100251.98;89035;1263;81576;-61
2022/08/23 01:21:49;;;;;;;22.10;9.50;;;;;;;19.52;80.04;100250.70;89013;1263;97559;-60
2022/08/23 01:24:00;;;;;;;11.40;8.10;;;;;;;19.53;80.14;100253.96;89031;1263;88732;-61
2022/08/23 01:26:13;;;;;;;15.90;8.20;;;;;;;19.55;80.00;100260.58;89055;1263;94385;-60
2022/08/23 01:28:23;;;;;;;17.30;7.90;;;;;;;19.59;80.06;100255.69;89027;1264;81069;-60
2022/08/23 01:30:35;;;;;;;14.80;9.20;;;;;;;19.60;80.13;100263.98;89022;1263;82969;-60
2022/08/23 01:32:50;;;;;;;11.60;8.30;;;;;;;19.67;80.43;100285.41;89016;1263;98879;-60
2022/08/23 01:34:58;;;;;;;22.90;8.90;;;;;;;19.73;80.49;100289.34;89071;1263;87207;-60
2022/08/23 01:37:09;;;;;;;16.90;8.50;;;;;;;19.78;80.65;100294.73;89060;1263;93643;-60
2022/08/23 01:39:18;;;;;;;17.50;8.60;;;;;;;19.88;80.76;100290.94;89029;1264;81313;-61
2022/08/23 01:41:30;;;;;;;18.20;8.50;;;;;;;19.93;80.74;100290.02;89055;1263;81739;-60
2022/08/23 01:43:42;;;;;;;17.20;7.90;;;;;;;20.01;80.50;100288.92;89043;1263;98432;-59
2022/08/23 01:45:55;;;;;;;20.00;10.20;;;;;;;20.05;80.62;100291.84;89012;1264;88040;-61
2022/08/23 01:48:06;;;;;;;;;;;;;;;20.09;80.66;100289.42;89036;1264;94468;-60
2022/08/23 01:50:16;;;;;;;20.00;9.40;;;;;;;20.15;80.33;100282.59;89028;1263;82226;-61
2022/08/23 01:52:26;;;;;;;26.40;9.70;;;;;;;20.19;80.37;100290.70;89071;1263;82891;-59
2022/08/23 01:54:39;;;;;;;19.30;9.80;;;;;;;20.23;80.46;100290.86;89008;1264;98007;-59
2022/08/23 01:56:51;;;;;;;20.50;9.50;;;;;;;20.27;80.37;100291.10;89019;1263;88228;-60
2022/08/23 01:59:03;;;;;;;20.00;9.20;;;;;;;20.28;80.35;100277.40;89028;1264;94424;-60
2022/08/23 02:01:12;;;;;;;22.00;9.80;;;;;;;20.29;80.65;100278.90;88975;1263;81818;-61
2022/08/23 02:03:28;;;;;;;27.30;9.70;;;;;;;20.30;80.59;100284.06;89046;1263;82073;-60
2022/08/23 02:05:44;;;;;;;21.40;9.80;;;;;;;20.33;80.65;100292.55;89024;1264;98772;-60
2022/08/23 02:07:53;;;;;;;22.00;10.20;;;;;;;20.33;80.71;100301.01;89051;1264;87350;-61
2022/08/23 02:10:02;;;;;;;23.10;10.90;;;;;;;20.34;80.81;100299.15;88987;1263;94663;-61
2022/08/23 02:12:15;;;;;;;20.40;9.50;;;;;;;20.32;80.96;100292.66;89053;1264;81425;-62
2022/08/23 02:14:27;;;;;;;20.30;11.10;;;;;;;20.38;80.90;100287.73;89039;1263;82507;-62
2022/08/23 02:16:39;;;;;;;19.30;9.50;;;;;;;20.38;80.92;100286.64;88990;1264;98021;-62
2022/08/23 02:18:56;;;;;;;21.70;9.80;;;;;;;20.38;81.03;100296.73;89021;1263;88946;-62
2022/08/23 02:21:09;;;;;;;22.90;9.90;;;;;;;20.39;80.97;100304.14;89009;1264;94669;-59
2022/08/23 02:23:19;;;;;;;19.30;9.70;;;;;;;20.37;81.10;100304.96;89021;1264;80516;-61
2022/08/23 02:25:29;;;;;;;18.00;9.50;;;;;;;20.37;81.57;100294.91;89013;1263;82861;-60
2022/08/23 02:27:39;;;;;;;19.90;9.90;;;;;;;20.34;81.54;100294.83;89083;1264;99018;-61
2022/08/23 02:29:52;;;;;;;24.60;9.80;;;;;;;20.36;81.42;100298.30;88998;1264;88932;-61
2022/08/23 02:32:07;;;;;;;19.90;9.50;;;;;;;20.37;81.52;100281.52;89028;1264;94485;-61
2022/08/23 02:34:20;;;;;;;21.40;9.60;;;;;;;20.38;81.64;100273.68;89043;1264;79833;-61
2022/08/23 02:36:35;;;;;;;19.40;10.20;;;;;;;20.38;81.72;100281.54;89037;1264;81498;-62
2022/08/23 02:38:44;;;;;;;19.00;9.80;;;;;;;20.38;81.78;100271.59;89045;1264;97344;-60
2022/08/23 02:40:53;;;;;;;20.70;9.50;;;;;;;20.36;81.97;100259.11;89032;1263;88226;-62
2022/08/23 02:43:02;;;;;;;20.20;9.70;;;;;;;20.36;81.94;100261.98;89074;1264;94833;-61
2022/08/23 02:45:13;;;;;;;23.20;10.10;;;;;;;20.34;81.93;100261.77;88995;1264;82018;-61
2022/08/23 02:47:26;;;;;;;18.20;9.20;;;;;;;20.34;81.92;100254.65;88981;1267;82171;-61
2022/08/23 02:49:38;;;;;;;19.40;9.90;;;;;;;20.32;82.00;100248.86;89004;1263;97482;-60
2022/08/23 02:51:49;;;;;;;21.30;9.30;;;;;;;20.31;82.16;100252.15;89055;1256;88774;-61
2022/08/23 02:54:01;;;;;;;21.90;10.40;;;;;;;20.30;82.19;100252.78;88944;1267;95174;-61
2022/08/23 02:56:11;;;;;;;19.60;10.30;;;;;;;20.27;82.24;100251.70;89006;1263;81748;-61
2022/08/23 02:58:20;;;;;;;18.70;9.60;;;;;;;20.27;82.38;100249.40;89026;1264;82497;-61
2022/08/23 03:00:29;;;;;;;18.20;10.50;;;;;;;20.26;82.37;100246.98;89053;1263;98469;-61
2022/08/23 03:02:39;;;;;;;19.70;10.60;;;;;;;20.30;82.35;100240.16;89040;1264;88930;-61
2022/08/23 03:04:51;;;;;;;21.10;11.70;;;;;;;20.32;82.40;100238.81;89004;1264;94629;-61
2022/08/23 03:07:00;;;;;;;17.90;10.40;;;;;;;20.38;82.36;100238.27;89011;1264;81028;-61
2022/08/23 03:09:11;;;;;;;21.40;11.50;;;;;;;20.39;82.24;100230.55;89037;1263;81346;-61
2022/08/23 03:11:22;;;;;;;20.50;11.60;;;;;;;20.40;82.31;100233.31;89026;1264;97911;-61
2022/08/23 03:13:31;;;;;;;21.80;11.70;;;;;;;20.41;82.31;100232.73;89107;1263;87417;-60
2022/08/23 03:15:44;;;;;;;21.30;10.90;;;;;;;20.38;82.34;100232.63;89006;1264;94666;-61
2022/08/23 03:17:55;;;;;;;20.90;10.90;;;;;;;20.35;82.43;100227.27;88997;1264;81141;-60
2022/08/23 03:20:06;;;;;;;19.00;10.70;;;;;;;20.33;82.44;100225.33;89018;1264;82672;-60
2022/08/23 03:22:21;;;;;;;18.40;10.10;;;;;;;20.27;82.59;100227.30;89015;1263;96519;-61
2022/08/23 03:24:31;;;;;;;16.10;10.00;;;;;;;20.26;82.68;100222.95;89051;1264;87190;-61
2022/08/23 03:26:44;;;;;;;17.70;9.50;;;;;;;20.28;82.71;100221.38;89022;1266;93914;-60
2022/08/23 03:28:53;;;;;;;17.00;10.00;;;;;;;20.28;82.87;100221.15;89007;1263;80821;-60
2022/08/23 03:31:03;;;;;;;15.90;9.30;;;;;;;20.28;82.66;100219.88;89019;1264;82039;-61
2022/08/23 03:33:14;;;;;;;21.20;10.00;;;;;;;20.28;82.68;100219.58;89048;1263;97884;-62
2022/08/23 03:35:27;;;;;;;18.60;10.90;;;;;;;20.29;82.56;100219.21;88949;1267;88845;-60
2022/08/23 03:37:40;;;;;;;18.90;10.20;;;;;;;20.26;82.86;100222.60;89019;1264;93708;-61
2022/08/23 03:39:52;;;;;;;18.90;10.00;;;;;;;20.24;82.84;100226.36;89023;1264;81964;-61
2022/08/23 03:42:04;;;;;;;16.40;10.00;;;;;;;20.24;82.81;100223.95;89038;1264;81008;-61
2022/08/23 03:44:16;;;;;;;15.10;9.20;;;;;;;20.23;82.90;100220.17;89037;1264;97396;-61
2022/08/23 03:46:31;;;;;;;17.10;9.70;;;;;;;20.23;82.82;100215.64;88702;1264;449679;-61
2022/08/23 03:48:43;;;;;;;14.10;10.30;;;;;;;20.27;82.80;100218.05;89011;1264;94184;-61
2022/08/23 03:51:02;;;;;;;20.80;10.30;;;;;;;20.30;82.83;100218.43;89071;1264;79473;-61
2022/08/23 03:53:14;;;;;;;19.20;11.30;;;;;;;20.32;82.88;100217.09;89038;1263;82941;-61
2022/08/23 03:55:25;;;;;;;16.30;9.60;;;;;;;20.36;82.82;100214.55;89037;1266;98186;-61
2022/08/23 03:57:36;;;;;;;18.10;10.90;;;;;;;20.37;82.75;100214.45;89015;1264;87665;-60
2022/08/23 03:59:48;;;;;;;16.50;9.30;;;;;;;20.35;82.87;100209.77;88967;1264;93180;-61
2022/08/23 04:02:00;;;;;;;16.10;10.10;;;;;;;20.39;82.75;100214.09;89047;1256;81784;-60
2022/08/23 04:04:09;;;;;;;14.40;9.50;;;;;;;20.42;82.63;100220.38;89031;1265;82328;-60
2022/08/23 04:06:19;;;;;;;18.10;10.00;;;;;;;20.42;82.90;100215.87;89042;1264;97997;-61
2022/08/23 04:08:33;;;;;;;14.60;10.50;;;;;;;20.50;82.71;100210.48;89003;1265;87222;-61
2022/08/23 04:10:43;;;;;;;16.30;10.10;;;;;;;20.54;82.74;100206.36;89023;1264;93358;-61
2022/08/23 04:12:58;;;;;;;16.60;10.00;;;;;;;20.58;82.79;100204.20;89009;1256;81103;-60
2022/08/23 04:15:12;;;;;;;15.90;10.10;;;;;;;20.65;82.53;100207.28;89037;1264;82861;-61
2022/08/23 04:17:27;;;;;;;14.90;9.50;;;;;;;20.63;82.43;100206.55;88997;1265;97561;-61
2022/08/23 04:19:39;;;;;;;15.30;9.80;;;;;;;20.65;82.40;100205.98;88979;1264;88273;-60
2022/08/23 04:21:55;;;;;;;14.80;9.70;;;;;;;20.68;82.34;100208.41;89021;1256;95078;-61
2022/08/23 04:24:06;;;;;;;14.00;9.40;;;;;;;20.67;82.42;100213.13;89027;1264;81840;-61
2022/08/23 04:26:17;;;;;;;15.30;10.50;;;;;;;20.64;82.25;100211.71;89028;1264;82581;-61
2022/08/23 04:28:28;;;;;;;20.50;10.20;;;;;;;20.62;82.29;100219.81;89018;1266;98310;-62
2022/08/23 04:30:40;;;;;;;15.00;9.80;;;;;;;20.55;82.37;100221.28;89023;1264;88763;-63
2022/08/23 04:32:51;;;;;;;17.50;10.10;;;;;;;20.53;82.54;100225.52;89028;1264;93861;-60
2022/08/23 04:35:00;;;;;;;16.00;9.90;;;;;;;20.59;82.58;100234.17;88951;1267;82063;-60
2022/08/23 04:37:10;;;;;;;15.10;9.40;;;;;;;20.61;82.58;100235.95;89035;1264;81913;-60
2022/08/23 04:39:21;;;;;;;13.40;9.90;;;;;;;20.63;82.67;100238.45;88998;1264;97213;-61
2022/08/23 04:44:00;;;;;;;18.20;10.20;;;;;;;20.92;82.77;100257.02;88980;1265;93538;-60
2022/08/23 04:46:14;;;;;;;17.50;9.70;;;;;;;21.13;82.95;100258.22;88995;1265;81967;-60
2022/08/23 04:48:23;;;;;;;13.70;9.50;;;;;;;21.38;82.85;100258.21;89028;1265;80242;-59
2022/08/23 04:50:41;;;;;;;18.60;10.50;;;;;;;21.68;82.70;100258.21;88974;1265;96733;-60
2022/08/23 04:52:49;;;;;;;17.40;10.30;;;;;;;22.13;82.42;100252.42;88944;1265;88926;-61
2022/08/23 04:55:02;;;;;;;20.20;10.00;;;;;;;22.54;81.75;100255.05;88995;1265;94425;-61
2022/08/23 04:57:16;;;;;;;15.70;9.80;;;;;;;22.83;81.02;100260.39;88977;1265;80665;-62
2022/08/23 04:59:26;;;;;;;25.60;11.30;;;;;;;23.12;80.55;100255.71;88978;1265;81143;-60
2022/08/23 05:01:38;;;;;;;26.30;10.50;;;;;;;23.18;79.95;100255.51;88998;1265;98979;-61
2022/08/23 05:03:51;;;;;;;25.90;11.30;;;;;;;23.05;79.45;100258.36;89015;1265;88718;-61
2022/08/23 05:06:05;;;;;;;26.10;11.60;;;;;;;22.80;79.29;100260.55;88970;1265;93058;-61
2022/08/23 05:08:15;;;;;;;18.10;10.70;;;;;;;22.73;78.97;100265.64;88988;1265;80387;-61
2022/08/23 05:10:32;;;;;;;15.40;9.10;;;;;;;22.56;78.70;100266.90;89017;1265;82580;-61
2022/08/23 05:12:42;;;;;;;17.00;11.10;;;;;;;22.45;78.74;100272.30;88999;1265;98958;-61
2022/08/23 05:14:56;;;;;;;16.60;11.10;;;;;;;22.39;78.80;100270.42;88992;1265;87321;-61
2022/08/23 05:17:06;;;;;;;19.50;12.50;;;;;;;22.27;79.03;100274.11;88975;1265;96073;-61
2022/08/23 05:19:15;;;;;;;15.30;11.70;;;;;;;22.32;79.14;100273.09;89006;1265;81958;-61
2022/08/23 05:21:25;;;;;;;17.20;11.60;;;;;;;22.39;79.20;100274.55;89030;1265;82118;-60
2022/08/23 05:23:34;;;;;;;16.50;10.90;;;;;;;22.48;79.21;100272.92;88980;1265;97636;-60
2022/08/23 05:25:51;;;;;;;16.30;11.60;;;;;;;22.67;79.32;100278.63;88995;1265;87078;-62
2022/08/23 05:28:13;;;;;;;19.10;12.60;;;;;;;22.96;79.21;100281.27;89016;1264;93912;-60
2022/08/23 05:30:23;;;;;;;15.30;11.60;;;;;;;23.72;78.95;100283.67;88994;1264;80230;-60
2022/08/23 05:32:32;;;;;;;21.00;13.20;;;;;;;24.47;77.90;100281.86;89055;1265;82964;-59
2022/08/23 05:34:43;;;;;;;20.70;11.50;;;;;;;25.28;76.68;100286.52;88956;1265;99519;-61
2022/08/23 05:36:53;;;;;;;22.00;12.00;;;;;;;25.88;75.81;100283.55;89028;1265;87078;-61
2022/08/23 05:39:02;;;;;;;21.10;11.90;;;;;;;26.47;74.99;100278.39;88975;1265;94082;-61
2022/08/23 05:41:11;;;;;;;20.90;11.90;;;;;;;27.07;74.21;100281.10;88966;1265;79971;-60
2022/08/23 05:43:21;;;;;;;21.80;12.70;;;;;;;27.68;72.90;100281.60;89043;1263;81807;-61
2022/08/23 05:45:30;;;;;;;35.70;13.60;;;;;;;28.07;71.88;100278.61;89007;1264;97432;-61
2022/08/23 05:47:41;;;;;;;40.50;14.60;;;;;;;28.31;70.39;100279.80;89025;1264;85981;-61
2022/08/23 05:49:52;;;;;;;37.00;12.90;;;;;;;28.37;70.03;100282.19;89021;1264;94398;-61
2022/08/23 05:52:04;;;;;;;40.40;14.20;;;;;;;28.64;69.10;100283.33;88999;1264;79998;-62
2022/08/23 05:54:15;;;;;;;45.10;14.30;;;;;;;28.68;68.52;100287.81;89035;1264;82617;-61
2022/08/23 05:56:27;;;;;;;42.70;14.40;;;;;;;28.83;67.70;100299.67;89029;1264;98707;-61
2022/08/23 05:58:36;;;;;;;33.90;12.40;;;;;;;29.06;66.51;100306.21;89077;1264;89149;-61
2022/08/23 06:00:48;;;;;;;24.90;11.30;;;;;;;29.26;65.85;100310.77;89042;1264;94230;-61
2022/08/23 06:02:58;;;;;;;15.80;9.80;;;;;;;29.51;65.68;100315.64;89030;1264;79990;-60
2022/08/23 06:05:09;;;;;;;19.00;9.90;;;;;;;29.65;65.05;100316.06;89058;1263;81649;-61
2022/08/23 06:07:20;;;;;;;26.40;11.10;;;;;;;29.64;64.72;100319.71;89057;1264;98690;-62
2022/08/23 06:09:30;;;;;;;25.70;12.10;;;;;;;29.99;64.17;100321.27;89067;1264;88394;-63
2022/08/23 06:11:46;;;;;;;38.90;15.80;;;;;;;30.12;63.26;100324.59;89048;1264;94729;-61
2022/08/23 06:14:03;;;;;;;44.20;14.90;;;;;;;30.29;62.82;100321.41;89057;1264;79209;-61
2022/08/23 06:16:14;;;;;;;46.70;17.50;;;;;;;30.63;62.37;100325.48;89057;1264;81684;-61
2022/08/23 06:18:23;;;;;;;46.60;16.50;;;;;;;31.13;61.54;100319.29;89004;1263;98216;-60
2022/08/23 06:20:36;;;;;;;31.20;15.00;;;;;;;31.81;61.11;100323.62;89038;1263;89570;-60
2022/08/23 06:22:45;;;;;;;21.10;12.60;;;;;;;32.39;60.02;100322.02;89032;1263;93635;-61
2022/08/23 06:24:57;;;;;;;25.40;12.70;;;;;;;32.94;59.53;100320.04;89028;1264;79332;-60
2022/08/23 06:27:07;;;;;;;17.40;10.70;;;;;;;33.41;58.42;100314.91;89068;1264;82152;-60
2022/08/23 06:29:20;;;;;;;20.20;11.50;;;;;;;33.51;57.61;100320.41;89053;1264;98369;-58
2022/08/23 06:34:03;;;;;;;25.70;13.20;;;;;;;33.57;55.65;100325.73;89043;1264;95467;-61
2022/08/23 06:36:16;;;;;;;13.70;8.60;;;;;;;33.59;54.60;100326.09;89031;1264;79753;-61
2022/08/23 06:38:25;;;;;;;11.20;8.00;;;;;;;33.70;54.10;100332.45;89016;1264;82393;-60
2022/08/23 06:40:37;;;;;;;26.90;11.20;;;;;;;34.07;53.90;100336.60;89012;1263;97688;-61
2022/08/23 06:42:52;;;;;;;19.30;10.60;;;;;;;34.23;52.83;100340.11;89063;1264;88874;-61
2022/08/23 06:45:02;;;;;;;16.50;8.80;;;;;;;33.90;52.08;100339.58;89040;1266;95473;-60
2022/08/23 06:47:12;;;;;;;39.60;12.00;;;;;;;34.15;51.66;100337.84;89036;1264;79241;-61
2022/08/23 06:49:26;;;;;;;30.20;13.10;;;;;;;34.49;50.97;100341.07;89012;1264;81232;-61
2022/08/23 06:51:39;;;;;;;30.50;11.40;;;;;;;34.49;50.39;100339.88;89083;1264;96622;-61
2022/08/23 06:53:49;;;;;;;34.30;11.70;;;;;;;33.99;50.19;100340.40;89074;1264;87559;-61
2022/08/23 06:56:00;;;;;;;21.90;9.70;;;;;;;33.40;50.53;100340.81;89102;1263;94757;-61
2022/08/23 06:58:12;;;;;;;33.80;12.90;;;;;;;32.84;49.97;100349.20;88998;1264;79347;-61
2022/08/23 07:00:21;;;;;;;41.20;11.90;;;;;;;32.08;50.91;100343.13;89078;1266;82203;-61
2022/08/23 07:02:30;;;;;;;42.30;13.00;;;;;;;31.72;51.82;100342.48;89092;1264;98350;-62
2022/08/23 07:04:41;;;;;;;48.80;13.40;;;;;;;31.28;52.39;100342.42;89054;1264;88531;-61
2022/08/23 07:06:50;;;;;;;33.50;12.30;;;;;;;30.99;52.69;100342.98;89020;1264;95560;-60
2022/08/23 07:09:00;;;;;;;28.10;11.30;;;;;;;30.95;52.50;100345.48;89078;1266;80310;-61
2022/08/23 07:11:11;;;;;;;36.00;11.40;;;;;;;30.83;52.95;100344.90;89102;1263;82926;-62
2022/08/23 07:13:28;;;;;;;33.40;11.30;;;;;;;30.85;53.44;100343.16;89015;1263;98056;-61
2022/08/23 07:15:46;;;;;;;33.60;11.80;;;;;;;31.23;53.22;100337.40;88992;1266;88315;-62
2022/08/23 07:18:04;;;;;;;27.20;9.30;;;;;;;31.28;53.04;100336.45;89060;1266;94676;-61
2022/08/23 07:20:15;;;;;;;26.80;10.70;;;;;;;31.86;52.91;100334.73;89039;1263;80954;-60
2022/08/23 07:22:34;;;;;;;16.40;8.60;;;;;;;32.34;52.43;100336.67;89101;1264;82845;-62
2022/08/23 07:24:52;;;;;;;16.00;7.30;;;;;;;32.34;52.44;100331.09;89044;1263;99017;-61
2022/08/23 07:27:13;;;;;;;10.10;6.30;;;;;;;32.34;52.26;100333.73;89043;1266;87833;-61
2022/08/23 07:29:26;;;;;;;20.60;8.40;;;;;;;32.46;51.76;100332.86;89070;1266;94261;-62
2022/08/23 07:31:44;;;;;;;19.50;7.40;;;;;;;32.38;51.19;100336.30;89062;1269;80709;-62
2022/08/23 07:33:56;;;;;;;12.90;7.20;;;;;;;32.39;51.03;100336.10;89043;1263;81542;-61
2022/08/23 07:36:14;;;;;;;13.40;6.50;;;;;;;32.28;50.86;100333.87;89046;1264;98447;-60
2022/08/23 07:38:22;;;;;;;15.20;7.00;;;;;;;32.05;51.27;100332.70;89067;1263;87670;-60
2022/08/23 07:40:35;;;;;;;13.60;7.10;;;;;;;31.76;51.43;100328.52;89053;1263;95209;-61
2022/08/23 07:42:48;;;;;;;9.80;6.30;;;;;;;31.64;51.53;100329.35;89084;1264;79158;-61
2022/08/23 07:44:57;;;;;;;14.30;6.80;;;;;;;31.56;51.32;100329.39;89117;1266;82094;-61
2022/08/23 07:47:09;;;;;;;14.00;7.00;;;;;;;31.42;51.76;100329.77;89064;1264;97823;-61
2022/08/23 07:49:18;;;;;;;16.30;7.30;;;;;;;31.50;51.88;100333.40;89070;1263;88093;-61
2022/08/23 07:51:28;;;;;;;15.40;7.40;;;;;;;31.56;51.57;100333.54;89065;1264;94523;-61
2022/08/23 07:53:40;;;;;;;15.90;7.90;;;;;;;31.42;51.48;100330.09;88988;1269;79718;-61
2022/08/23 07:55:53;;;;;;;28.20;10.00;;;;;;;31.22;51.88;100329.88;89114;1263;81741;-60
2022/08/23 07:58:09;;;;;;;20.50;8.40;;;;;;;31.35;52.11;100335.88;89034;1266;96498;-61
2022/08/23 08:00:22;;;;;;;27.50;9.70;;;;;;;31.51;52.21;100337.77;89024;1264;86039;-61
2022/08/23 08:02:33;;;;;;;22.90;8.50;;;;;;;31.62;52.21;100338.42;89070;1264;94951;-62
2022/08/23 08:04:45;;;;;;;20.50;8.30;;;;;;;31.74;52.06;100340.08;89076;1266;79262;-61
2022/08/23 08:06:59;;;;;;;15.70;7.60;;;;;;;31.66;51.86;100337.10;89067;1265;83003;-60
2022/08/23 08:09:11;;;;;;;13.00;7.40;;;;;;;31.55;52.14;100336.23;89046;1263;98527;-61
2022/08/23 08:11:27;;;;;;;17.30;7.60;;;;;;;31.47;52.24;100335.53;89063;1264;88418;-61
2022/08/23 08:13:37;;;;;;;12.60;7.00;;;;;;;31.31;52.40;100338.19;89069;1264;92842;-62
2022/08/23 08:15:49;;;;;;;11.80;7.70;;;;;;;31.29;52.62;100335.06;89017;1264;80045;-59
2022/08/23 08:17:58;;;;;;;14.20;7.00;;;;;;;31.07;52.57;100338.14;89073;1264;82582;-61
2022/08/23 08:20:10;;;;;;;21.60;8.40;;;;;;;30.90;53.13;100342.69;89090;1263;97966;-59
2022/08/23 08:22:19;;;;;;;28.40;9.70;;;;;;;31.14;53.38;100341.77;89100;1264;87029;-61
2022/08/23 08:24:30;;;;;;;37.90;12.60;;;;;;;31.60;53.26;100339.88;89049;1263;94839;-61
2022/08/23 08:26:40;;;;;;;63.30;15.40;;;;;;;31.92;52.91;100336.77;89026;1263;79123;-61
2022/08/23 08:28:50;;;;;;;37.70;12.30;;;;;;;32.33;52.56;100337.17;89045;1264;82426;-61
2022/08/23 08:31:05;;;;;;;43.90;13.10;;;;;;;32.85;52.34;100336.40;89079;1266;98618;-60
2022/08/23 08:33:18;;;;;;;61.60;15.40;;;;;;;33.45;51.86;100339.65;89073;1264;88676;-61
2022/08/23 08:35:27;;;;;;;32.60;10.30;;;;;;;34.03;51.08;100340.30;89033;1265;94602;-61
2022/08/23 08:37:39;;;;;;;37.70;12.20;;;;;;;34.49;50.27;100340.27;89069;1263;78536;-61
2022/08/23 08:39:50;;;;;;;22.90;9.10;;;;;;;34.66;49.22;100339.81;89062;1263;82870;-61
2022/08/23 08:42:22;;;;;;;27.70;11.10;;;;;;;34.39;49.43;100341.39;89057;1264;97952;-61
2022/08/23 08:44:40;;;;;;;28.50;10.60;;;;;;;34.53;49.01;100341.12;89029;1265;88582;-60
2022/08/23 08:46:55;;;;;;;13.40;7.50;;;;;;;33.85;48.59;100336.64;89085;1263;95084;-60
2022/08/23 08:49:05;;;;;;;16.40;7.50;;;;;;;32.85;49.17;100336.95;89071;1266;80961;-61
2022/08/23 08:51:34;;;;;;;15.80;8.40;;;;;;;32.24;49.53;100340.63;89074;1264;82581;-61
2022/08/23 08:53:51;;;;;;;22.70;8.90;;;;;;;31.69;50.19;100343.29;89035;1266;98305;-60
2022/08/23 08:56:10;;;;;;;29.10;9.60;;;;;;;31.42;50.77;100340.80;89057;1263;87621;-61
2022/08/23 08:58:27;;;;;;;14.70;8.10;;;;;;;31.08;51.38;100342.21;89032;1266;94406;-61
2022/08/23 09:00:45;;;;;;;18.70;8.10;;;;;;;30.93;51.91;100346.73;89049;1269;79789;-61
2022/08/23 09:02:57;;;;;;;13.50;7.60;;;;;;;30.67;52.27;100347.77;89110;1263;81780;-61
2022/08/23 09:05:14;;;;;;;25.40;9.80;;;;;;;30.47;53.00;100346.98;89028;1263;98643;-61
2022/08/23 09:07:30;;;;;;;27.10;9.80;;;;;;;30.46;53.01;100349.84;89056;1264;87941;-60
2022/08/23 09:10:12;;;;;;;31.60;10.70;;;;;;;30.47;53.12;100349.95;89033;1264;93814;-61
2022/08/23 09:12:44;;;;;;;27.50;10.70;;;;;;;30.22;53.44;100347.62;89033;1269;80817;-61
2022/08/23 09:15:21;;;;;;;15.40;9.10;;;;;;;30.32;53.76;100346.62;89098;1264;82096;-61
2022/08/23 09:17:44;;;;;;;22.30;9.10;;;;;;;30.28;53.80;100347.77;89042;1264;97868;-60
2022/08/23 09:19:59;;;;;;;34.30;12.20;;;;;;;30.42;54.36;100346.58;89062;1263;88042;-60
2022/08/23 09:22:15;;;;;;;48.60;13.90;;;;;;;30.71;54.41;100344.94;89044;1265;94458;-60
2022/08/23 09:24:24;;;;;;;32.30;12.00;;;;;;;31.19;54.50;100342.58;89047;1264;79035;-61
2022/08/23 09:26:34;;;;;;;27.00;12.40;;;;;;;31.57;53.98;100343.55;89088;1264;81420;-62
2022/08/23 09:28:46;;;;;;;33.20;13.10;;;;;;;31.74;53.52;100340.91;89056;1264;98709;-60
2022/08/23 09:30:58;;;;;;;24.20;12.00;;;;;;;31.72;53.25;100343.70;89105;1264;87540;-61
2022/08/23 09:33:17;;;;;;;;;;;;;;;31.37;53.39;100340.00;89019;1266;94608;-61
2022/08/23 09:35:27;;;;;;;17.00;8.80;;;;;;;30.96;53.92;100335.98;89076;1264;80984;-61
2022/08/23 09:37:58;;;;;;;16.60;8.40;;;;;;;30.92;54.02;100344.10;89121;1263;81436;-61
2022/08/23 09:40:30;;;;;;;18.20;8.00;;;;;;;30.94;53.93;100341.23;89096;1264;97718;-60
2022/08/23 09:42:41;;;;;;;26.50;10.70;;;;;;;31.03;54.24;100339.42;89104;1264;88892;-60
2022/08/23 09:44:50;;;;;;;63.10;15.80;;;;;;;31.04;54.49;100334.36;89060;1264;94432;-59
2022/08/23 09:47:08;;;;;;;36.90;12.70;;;;;;;31.11;54.35;100334.30;89074;1264;79383;-60
2022/08/23 09:49:30;;;;;;;33.70;11.50;;;;;;;31.13;54.14;100335.20;89105;1263;81588;-61
2022/08/23 09:51:41;;;;;;;28.80;10.90;;;;;;;31.19;54.04;100336.02;89059;1264;98576;-61
2022/08/23 09:54:05;;;;;;;23.30;10.60;;;;;;;31.18;54.18;100336.65;89082;1264;89015;-60
2022/08/23 09:56:24;;;;;;;23.60;9.80;;;;;;;31.16;54.23;100335.42;89081;1266;94672;-61
2022/08/23 09:58:45;;;;;;;19.50;9.90;;;;;;;31.40;54.33;100339.31;89072;1264;80534;-62
2022/08/23 10:01:16;;;;;;;20.80;10.80;;;;;;;31.45;54.12;100335.60;89090;1264;82675;-61
2022/08/23 10:03:30;;;;;;;19.30;9.20;;;;;;;31.53;54.22;100334.84;89069;1263;98344;-61
2022/08/23 10:05:42;;;;;;;24.70;10.30;;;;;;;31.63;54.16;100334.02;89035;1266;88351;-60
2022/08/23 10:07:59;;;;;;;45.50;13.50;;;;;;;31.75;54.07;100331.90;89046;1263;94369;-61
2022/08/23 10:10:47;;;;;;;32.40;11.60;;;;;;;31.88;54.63;100329.73;89097;1269;80839;-62
2022/08/23 10:13:01;;;;;;;18.60;10.00;;;;;;;31.93;54.22;100333.14;89094;1264;82461;-59
2022/08/23 10:15:13;;;;;;;35.70;12.60;;;;;;;31.88;54.13;100334.77;89062;1263;98052;-61
2022/08/23 10:17:34;;;;;;;21.70;9.40;;;;;;;31.89;53.46;100333.17;89111;1263;86933;-61
2022/08/23 10:19:54;;;;;;;19.20;8.80;;;;;;;31.83;53.16;100330.20;89034;1264;94156;-61